Time;durP1;ratioP1;P1;durP2;ratioP2;P2;SDS_P1;SDS_P2;PMS_P1;PMS_P2;Temp;Humidity;BMP_temperature;BMP_pressure;BME280_temperature;BME280_humidity;BME280_pressure;Samples;Min_cycle;Max_cycle;Signal;HPM_P1;HPM_P2
2021/07/10 00:00:48;;;;;;;31.60;24.10;;;16.40;99.90;;;;;;5046044;28;20405;-78
2021/07/10 00:03:14;;;;;;;34.40;24.10;;;16.30;99.90;;;;;;5048304;28;20405;-78
2021/07/10 00:05:40;;;;;;;41.30;26.50;;;16.20;99.90;;;;;;5059969;28;20445;-80
2021/07/10 00:08:05;;;;;;;37.53;25.00;;;16.20;99.90;;;;;;5059729;28;20396;-77
2021/07/10 00:10:31;;;;;;;38.80;25.53;;;16.10;99.90;;;;;;5063284;28;20409;-79
2021/07/10 00:12:57;;;;;;;34.50;25.90;;;16.10;99.90;;;;;;5059666;28;20373;-79
2021/07/10 00:15:24;;;;;;;34.47;25.37;;;16.10;99.90;;;;;;5052496;28;20386;-78
2021/07/10 00:17:50;;;;;;;40.33;27.57;;;16.10;99.90;;;;;;5054987;28;20459;-78
2021/07/10 00:20:17;;;;;;;37.25;26.70;;;16.10;99.90;;;;;;5057575;28;20416;-77
2021/07/10 00:22:43;;;;;;;37.95;27.05;;;16.00;99.90;;;;;;5061388;28;20381;-78
2021/07/10 00:25:12;;;;;;;35.38;26.95;;;16.00;99.90;;;;;;5072378;28;20393;-77
2021/07/10 00:27:39;;;;;;;41.70;26.65;;;16.00;99.90;;;;;;5072870;28;20418;-78
2021/07/10 00:30:07;;;;;;;34.88;25.50;;;15.90;99.90;;;;;;5064291;28;20416;-79
2021/07/10 00:32:33;;;;;;;34.80;26.45;;;15.90;99.90;;;;;;5062712;28;20410;-79
2021/07/10 00:34:58;;;;;;;39.97;26.45;;;15.90;99.90;;;;;;5044020;28;20500;-78
2021/07/10 00:37:24;;;;;;;39.03;27.03;;;16.00;99.90;;;;;;5058474;28;20427;-78
2021/07/10 00:39:49;;;;;;;34.25;25.70;;;16.10;99.90;;;;;;5055164;28;20466;-78
2021/07/10 00:42:19;;;;;;;33.17;25.40;;;16.20;99.90;;;;;;5061719;28;20385;-78
2021/07/10 00:44:46;;;;;;;36.83;25.05;;;16.00;99.90;;;;;;5041259;28;20531;-78
2021/07/10 00:47:15;;;;;;;36.15;26.02;;;15.90;99.90;;;;;;5060696;28;20388;-78
2021/07/10 00:49:40;;;;;;;35.15;25.75;;;15.80;99.90;;;;;;5058465;28;21129;-77
2021/07/10 00:52:06;;;;;;;34.90;26.70;;;15.80;99.90;;;;;;5056812;28;20389;-78
2021/07/10 00:54:32;;;;;;;37.03;26.10;;;15.90;99.90;;;;;;5057657;28;20397;-77
2021/07/10 00:56:59;;;;;;;35.05;25.60;;;15.80;99.90;;;;;;5056066;28;20398;-78
2021/07/10 00:59:26;;;;;;;39.50;27.57;;;15.80;99.90;;;;;;5040050;28;20401;-79
2021/07/10 01:01:52;;;;;;;40.38;26.10;;;15.80;99.90;;;;;;5061479;28;20385;-77
2021/07/10 01:04:18;;;;;;;40.55;27.77;;;15.70;99.90;;;;;;5061193;28;20379;-77
2021/07/10 01:06:44;;;;;;;38.65;27.30;;;15.60;99.90;;;;;;5042890;28;20449;-77
2021/07/10 01:09:10;;;;;;;35.42;26.67;;;15.60;99.90;;;;;;5043532;28;20799;-78
2021/07/10 01:11:35;;;;;;;42.27;28.27;;;15.50;99.90;;;;;;5060910;28;20428;-78
2021/07/10 01:14:02;;;;;;;34.83;26.27;;;15.50;99.90;;;;;;5060351;28;20472;-78
2021/07/10 01:16:28;;;;;;;43.50;29.53;;;15.50;99.90;;;;;;5057947;28;20393;-79
2021/07/10 01:18:54;;;;;;;40.20;28.48;;;15.50;99.90;;;;;;5062863;28;20478;-77
2021/07/10 01:21:20;;;;;;;37.60;26.95;;;15.40;99.90;;;;;;5046361;28;20793;-78
2021/07/10 01:23:48;;;;;;;42.45;28.55;;;15.40;99.90;;;;;;5060563;28;20764;-77
2021/07/10 01:26:14;;;;;;;37.95;28.23;;;15.50;99.90;;;;;;5065226;28;20394;-77
2021/07/10 01:28:39;;;;;;;44.07;29.50;;;15.50;99.90;;;;;;5046595;28;20896;-77
2021/07/10 01:31:06;;;;;;;42.33;29.73;;;15.40;99.90;;;;;;5064507;28;20413;-77
2021/07/10 01:33:32;;;;;;;44.53;30.40;;;15.40;99.90;;;;;;5055727;28;20393;-77
2021/07/10 01:35:57;;;;;;;40.55;29.80;;;15.50;99.90;;;;;;5037990;28;20424;-77
2021/07/10 01:38:23;;;;;;;40.92;28.77;;;15.40;99.90;;;;;;5054339;28;20439;-79
2021/07/10 01:40:48;;;;;;;44.00;29.77;;;15.30;99.90;;;;;;5054035;28;20415;-79
2021/07/10 01:43:14;;;;;;;44.90;30.00;;;15.30;99.90;;;;;;5058854;28;20392;-79
2021/07/10 01:45:40;;;;;;;47.37;30.73;;;15.30;99.90;;;;;;5059797;28;20833;-77
2021/07/10 01:48:10;;;;;;;45.83;29.30;;;15.30;99.90;;;;;;5059983;28;20850;-78
2021/07/10 01:50:36;;;;;;;41.78;28.95;;;15.20;99.90;;;;;;5056053;28;20439;-78
2021/07/10 01:53:01;;;;;;;41.58;29.48;;;15.30;99.90;;;;;;5056567;28;20396;-77
2021/07/10 01:55:28;;;;;;;39.85;28.45;;;15.40;99.90;;;;;;5055364;28;20377;-78
2021/07/10 01:57:54;;;;;;;41.72;28.50;;;15.20;99.90;;;;;;5055336;28;20874;-78
2021/07/10 02:00:23;;;;;;;43.22;27.85;;;15.20;99.90;;;;;;5054470;28;20401;-78
2021/07/10 02:02:49;;;;;;;42.35;27.40;;;15.20;99.90;;;;;;5054431;28;20435;-79
2021/07/10 02:05:20;;;;;;;40.88;28.58;;;15.10;99.90;;;;;;5053512;28;20382;-78
2021/07/10 02:07:46;;;;;;;46.20;30.27;;;15.00;99.90;;;;;;5055665;28;20381;-78
2021/07/10 02:10:13;;;;;;;47.00;30.23;;;15.00;99.90;;;;;;5037918;28;20377;-79
2021/07/10 02:12:41;;;;;;;49.78;30.50;;;14.90;99.90;;;;;;5054456;28;20797;-79
2021/07/10 02:15:08;;;;;;;47.55;33.42;;;15.00;99.90;;;;;;5055420;28;20432;-78
2021/07/10 02:17:34;;;;;;;48.35;32.17;;;15.00;99.90;;;;;;5063070;28;20385;-78
2021/07/10 02:20:00;;;;;;;50.22;33.22;;;15.00;99.90;;;;;;5060691;28;20401;-78
2021/07/10 02:22:25;;;;;;;52.67;34.90;;;15.00;99.90;;;;;;5056221;28;20409;-77
2021/07/10 02:24:51;;;;;;;53.77;35.63;;;14.90;99.90;;;;;;5057177;28;20858;-76
2021/07/10 02:27:17;;;;;;;68.57;38.10;;;15.00;99.90;;;;;;5053642;28;20381;-77
2021/07/10 02:29:43;;;;;;;62.47;37.25;;;14.90;99.90;;;;;;5052722;28;20884;-77
2021/07/10 02:32:09;;;;;;;62.30;38.63;;;15.00;99.90;;;;;;5053391;28;20413;-78
2021/07/10 02:34:34;;;;;;;58.92;38.15;;;15.10;99.90;;;;;;5054395;28;20476;-78
2021/07/10 02:37:00;;;;;;;62.67;37.20;;;15.10;99.90;;;;;;5054481;28;20393;-79
2021/07/10 02:39:26;;;;;;;59.80;39.73;;;15.10;99.90;;;;;;5062041;28;20929;-78
2021/07/10 02:41:51;;;;;;;63.95;38.55;;;15.20;99.90;;;;;;5063296;28;20385;-78
2021/07/10 02:44:17;;;;;;;66.68;39.20;;;15.20;99.90;;;;;;5060129;28;20381;-78
2021/07/10 02:46:42;;;;;;;56.23;36.63;;;15.20;99.90;;;;;;5057452;28;20382;-77
2021/07/10 02:49:08;;;;;;;64.50;39.30;;;15.20;99.90;;;;;;5058720;28;20742;-77
2021/07/10 02:51:34;;;;;;;63.95;38.67;;;15.10;99.90;;;;;;5042107;28;20419;-77
2021/07/10 02:53:59;;;;;;;62.80;38.40;;;15.00;99.90;;;;;;5052737;28;20387;-77
2021/07/10 02:56:25;;;;;;;57.88;37.72;;;15.00;99.90;;;;;;5051823;28;20381;-77
2021/07/10 02:58:52;;;;;;;61.05;40.08;;;15.00;99.90;;;;;;5034731;28;20398;-79
2021/07/10 03:01:18;;;;;;;60.05;38.47;;;14.90;99.90;;;;;;5035691;28;20426;-78
2021/07/10 03:03:44;;;;;;;63.17;39.20;;;14.90;99.90;;;;;;5061331;28;20373;-78
2021/07/10 03:06:09;;;;;;;65.38;38.42;;;14.90;99.90;;;;;;5060582;28;20400;-79
2021/07/10 03:08:35;;;;;;;60.47;37.60;;;14.90;99.90;;;;;;5044145;28;20405;-79
2021/07/10 03:11:01;;;;;;;67.47;40.42;;;14.90;99.90;;;;;;5055251;28;20400;-77
2021/07/10 03:13:26;;;;;;;59.60;38.53;;;14.90;99.90;;;;;;5053955;28;20400;-77
2021/07/10 03:15:52;;;;;;;66.10;40.77;;;14.90;99.90;;;;;;5052375;28;20458;-77
2021/07/10 03:18:20;;;;;;;66.97;39.92;;;14.90;99.90;;;;;;5052067;28;20381;-76
2021/07/10 03:20:46;;;;;;;66.57;40.38;;;14.90;99.90;;;;;;5053175;28;20475;-78
2021/07/10 03:23:12;;;;;;;65.53;40.40;;;14.90;99.90;;;;;;5034270;28;20385;-78
2021/07/10 03:25:38;;;;;;;68.23;41.03;;;14.90;99.90;;;;;;5051315;28;20427;-77
2021/07/10 03:28:04;;;;;;;63.25;39.95;;;14.80;99.90;;;;;;5052788;28;20422;-78
2021/07/10 03:30:30;;;;;;;68.15;41.88;;;14.80;99.90;;;;;;5051465;28;20397;-77
2021/07/10 03:32:55;;;;;;;63.00;39.40;;;14.80;99.90;;;;;;5050636;28;20390;-77
2021/07/10 03:35:22;;;;;;;62.05;39.42;;;14.80;99.90;;;;;;5051200;28;20386;-77
2021/07/10 03:37:49;;;;;;;66.47;40.28;;;14.80;99.90;;;;;;5052554;28;20388;-77
2021/07/10 03:40:17;;;;;;;65.47;39.70;;;14.80;99.90;;;;;;5053778;28;20456;-76
2021/07/10 03:42:43;;;;;;;63.33;38.70;;;14.80;99.90;;;;;;5051495;28;20385;-76
2021/07/10 03:45:11;;;;;;;64.30;40.83;;;14.80;99.90;;;;;;5050901;28;20386;-76
2021/07/10 03:47:37;;;;;;;68.38;40.20;;;14.80;99.90;;;;;;5050935;28;20408;-77
2021/07/10 03:50:05;;;;;;;71.78;38.78;;;14.90;99.90;;;;;;5053159;28;20838;-77
2021/07/10 03:52:30;;;;;;;62.80;39.03;;;15.00;99.90;;;;;;5055707;28;20377;-77
2021/07/10 03:54:56;;;;;;;70.27;39.53;;;15.00;99.90;;;;;;5055799;28;20381;-77
2021/07/10 03:57:21;;;;;;;61.63;38.20;;;15.00;99.90;;;;;;5055027;28;20481;-77
2021/07/10 03:59:47;;;;;;;62.22;39.50;;;15.00;99.90;;;;;;5055694;28;20420;-78
2021/07/10 04:02:12;;;;;;;65.57;39.95;;;15.10;99.90;;;;;;5054578;28;20859;-77
2021/07/10 04:04:38;;;;;;;61.90;37.90;;;15.10;99.90;;;;;;5036080;28;20386;-76
2021/07/10 04:07:04;;;;;;;60.03;37.33;;;15.20;99.90;;;;;;5056286;28;20382;-78
2021/07/10 04:09:29;;;;;;;60.50;38.60;;;15.20;99.90;;;;;;5054681;28;20379;-77
2021/07/10 04:11:55;;;;;;;60.88;36.75;;;15.30;99.90;;;;;;5053889;28;20466;-77
2021/07/10 04:14:22;;;;;;;57.67;37.87;;;15.30;99.90;;;;;;5053552;28;20451;-77
2021/07/10 04:16:48;;;;;;;59.47;37.50;;;15.40;99.90;;;;;;5040109;28;20390;-78
2021/07/10 04:19:13;;;;;;;53.27;35.53;;;15.50;99.90;;;;;;5060404;28;20381;-77
2021/07/10 04:21:39;;;;;;;57.30;37.17;;;15.60;99.90;;;;;;5057421;28;20409;-76
2021/07/10 04:24:04;;;;;;;56.45;35.90;;;15.70;99.90;;;;;;5063581;28;20389;-78
2021/07/10 04:26:30;;;;;;;53.85;34.92;;;15.70;99.90;;;;;;5059222;28;20366;-79
2021/07/10 04:28:56;;;;;;;51.45;33.75;;;15.80;99.90;;;;;;5055614;28;20389;-77
2021/07/10 04:31:21;;;;;;;51.40;33.73;;;15.90;99.90;;;;;;5057770;28;20385;-77
2021/07/10 04:33:47;;;;;;;53.20;34.67;;;16.00;99.90;;;;;;5053734;28;20865;-77
2021/07/10 04:36:12;;;;;;;44.70;31.70;;;16.10;99.90;;;;;;5036568;28;20397;-76
2021/07/10 04:38:38;;;;;;;44.88;30.35;;;16.20;99.90;;;;;;5055990;28;20427;-77
2021/07/10 04:41:05;;;;;;;45.28;31.10;;;16.20;99.90;;;;;;5046637;28;20401;-77
2021/07/10 04:43:32;;;;;;;43.22;29.90;;;16.30;99.90;;;;;;5045634;28;20804;-77
2021/07/10 04:45:58;;;;;;;44.40;29.73;;;16.40;99.90;;;;;;5042022;28;20724;-77
2021/07/10 04:48:23;;;;;;;39.60;29.55;;;16.50;99.90;;;;;;5054106;28;20388;-77
2021/07/10 04:50:49;;;;;;;41.07;29.40;;;16.60;99.90;;;;;;5054384;28;20398;-76
2021/07/10 04:53:15;;;;;;;39.77;27.90;;;16.80;99.90;;;;;;5055863;28;20560;-77
2021/07/10 04:55:40;;;;;;;36.15;26.98;;;16.90;99.90;;;;;;5054948;28;20435;-77
2021/07/10 04:58:06;;;;;;;34.33;25.52;;;17.10;99.90;;;;;;5056188;28;20469;-77
2021/07/10 05:00:32;;;;;;;38.70;25.52;;;17.20;99.90;;;;;;5055423;28;20401;-78
2021/07/10 05:02:57;;;;;;;32.67;25.30;;;17.30;99.90;;;;;;5054089;28;20386;-77
2021/07/10 05:05:23;;;;;;;33.25;25.20;;;17.40;99.90;;;;;;5054754;28;20382;-77
2021/07/10 05:07:49;;;;;;;35.20;25.07;;;17.50;99.90;;;;;;5056222;28;20457;-77
2021/07/10 05:10:14;;;;;;;34.00;24.67;;;17.50;99.90;;;;;;5062140;28;20420;-77
2021/07/10 05:12:40;;;;;;;34.00;24.20;;;17.50;99.90;;;;;;5065064;28;20393;-77
2021/07/10 05:15:06;;;;;;;31.75;22.85;;;17.60;99.70;;;;;;5062206;28;20413;-77
2021/07/10 05:17:32;;;;;;;31.73;23.67;;;17.60;99.00;;;;;;5057400;28;20453;-77
2021/07/10 05:19:58;;;;;;;32.17;23.90;;;17.70;99.10;;;;;;5061274;28;20495;-77
2021/07/10 05:22:23;;;;;;;29.50;23.02;;;17.80;97.40;;;;;;5062664;28;20472;-78
2021/07/10 05:24:49;;;;;;;33.72;23.25;;;17.80;97.30;;;;;;5054859;28;20377;-77
2021/07/10 05:27:14;;;;;;;32.00;23.80;;;17.80;97.40;;;;;;5054374;28;20805;-78
2021/07/10 05:29:40;;;;;;;26.83;21.35;;;17.90;95.80;;;;;;5038381;28;20396;-78
2021/07/10 05:32:06;;;;;;;29.60;20.95;;;18.00;94.80;;;;;;5055277;28;20807;-77
2021/07/10 05:34:32;;;;;;;30.83;22.85;;;18.10;93.80;;;;;;5036639;28;20478;-77
2021/07/10 05:36:57;;;;;;;28.77;22.40;;;18.10;93.90;;;;;;5060090;28;20393;-77
2021/07/10 05:39:23;;;;;;;31.53;22.77;;;18.20;93.20;;;;;;5061020;28;20415;-77
2021/07/10 05:41:49;;;;;;;30.38;22.35;;;18.20;93.10;;;;;;5052314;28;20901;-77
2021/07/10 05:44:14;;;;;;;30.80;23.05;;;18.20;92.90;;;;;;5052164;28;20401;-77
2021/07/10 05:46:40;;;;;;;30.38;21.80;;;18.30;92.90;;;;;;5052766;28;20559;-77
2021/07/10 05:49:05;;;;;;;28.80;23.30;;;18.40;92.70;;;;;;5050004;28;20381;-78
2021/07/10 05:51:31;;;;;;;26.40;20.17;;;18.50;91.30;;;;;;5073205;28;20405;-77
2021/07/10 05:53:57;;;;;;;30.80;21.33;;;18.60;90.40;;;;;;5074575;28;20389;-76
2021/07/10 05:56:22;;;;;;;28.50;21.10;;;18.80;87.40;;;;;;5064554;28;20870;-77
2021/07/10 05:58:48;;;;;;;26.43;20.73;;;18.90;85.70;;;;;;5060990;28;20754;-77
2021/07/10 06:01:14;;;;;;;27.60;21.15;;;19.00;83.90;;;;;;5063940;28;20494;-78
2021/07/10 06:03:39;;;;;;;27.20;20.52;;;19.00;82.80;;;;;;5065892;28;20930;-77
2021/07/10 06:06:05;;;;;;;23.73;20.37;;;19.00;82.70;;;;;;5064454;28;20385;-77
2021/07/10 06:08:31;;;;;;;24.77;20.10;;;19.10;83.10;;;;;;5049700;28;20469;-78
2021/07/10 06:10:56;;;;;;;27.88;20.42;;;19.10;82.80;;;;;;5065850;28;20889;-77
2021/07/10 06:13:22;;;;;;;24.35;19.10;;;19.10;81.90;;;;;;5051391;28;20381;-78
2021/07/10 06:15:47;;;;;;;27.23;19.10;;;19.20;81.30;;;;;;5055353;28;20878;-77
2021/07/10 06:18:13;;;;;;;27.08;19.88;;;19.30;81.10;;;;;;5072511;28;20385;-78
2021/07/10 06:20:39;;;;;;;26.55;20.33;;;19.30;79.80;;;;;;5070878;28;20413;-79
2021/07/10 06:23:06;;;;;;;25.98;19.23;;;19.50;78.70;;;;;;5044032;28;20392;-77
2021/07/10 06:25:36;;;;;;;24.17;18.80;;;19.70;77.00;;;;;;5036276;28;20416;-77
2021/07/10 06:28:06;;;;;;;25.98;19.48;;;19.90;75.00;;;;;;5055199;28;20440;-77
2021/07/10 06:30:32;;;;;;;24.10;17.60;;;20.10;72.70;;;;;;5055023;28;20390;-78
2021/07/10 06:32:58;;;;;;;28.10;19.85;;;20.20;71.50;;;;;;5061372;28;20396;-78
2021/07/10 06:35:24;;;;;;;24.58;18.20;;;20.20;70.00;;;;;;5072426;28;20452;-78
2021/07/10 06:37:50;;;;;;;25.88;17.52;;;20.40;68.70;;;;;;5072617;28;20393;-78
2021/07/10 06:40:17;;;;;;;24.52;18.70;;;20.50;66.80;;;;;;5071566;28;20401;-77
2021/07/10 06:42:43;;;;;;;22.92;17.70;;;20.60;65.40;;;;;;5056197;28;20464;-78
2021/07/10 06:45:11;;;;;;;26.02;18.48;;;20.70;65.60;;;;;;5053723;28;20382;-77
2021/07/10 06:47:37;;;;;;;30.23;19.40;;;20.70;63.80;;;;;;5037539;28;20452;-77
2021/07/10 06:50:08;;;;;;;24.23;19.33;;;20.70;64.70;;;;;;5034623;28;20397;-76
2021/07/10 06:52:34;;;;;;;25.90;19.45;;;20.80;64.50;;;;;;5034623;28;20508;-77
2021/07/10 06:54:59;;;;;;;23.20;19.10;;;20.80;63.50;;;;;;5054751;28;20421;-77
2021/07/10 06:57:25;;;;;;;27.23;19.40;;;20.90;64.20;;;;;;5036302;28;20401;-77
2021/07/10 06:59:51;;;;;;;28.57;18.70;;;21.00;64.00;;;;;;5054238;28;20385;-78
2021/07/10 07:02:16;;;;;;;24.80;18.02;;;21.20;61.50;;;;;;5054036;28;20385;-77
2021/07/10 07:04:42;;;;;;;24.77;19.77;;;21.10;61.60;;;;;;5053300;28;20520;-77
2021/07/10 07:07:08;;;;;;;30.33;21.47;;;21.20;59.90;;;;;;5055695;28;20385;-78
2021/07/10 07:09:34;;;;;;;26.60;19.55;;;21.00;62.10;;;;;;5056875;28;20386;-78
2021/07/10 07:11:59;;;;;;;28.33;20.00;;;21.00;62.90;;;;;;5058647;28;20850;-76
2021/07/10 07:14:25;;;;;;;31.03;21.20;;;21.00;61.60;;;;;;5054716;28;20453;-77
2021/07/10 07:16:50;;;;;;;28.50;20.17;;;21.10;62.50;;;;;;5054238;28;20424;-78
2021/07/10 07:19:16;;;;;;;28.02;20.40;;;21.10;61.80;;;;;;5053949;28;20385;-78
2021/07/10 07:21:41;;;;;;;30.03;22.07;;;21.30;60.10;;;;;;5054982;28;20405;-78
2021/07/10 07:24:07;;;;;;;28.60;21.52;;;21.40;59.60;;;;;;5055671;28;20840;-78
2021/07/10 07:26:34;;;;;;;30.80;21.80;;;21.60;58.60;;;;;;5068305;28;20401;-78
2021/07/10 07:29:00;;;;;;;34.40;23.80;;;21.80;56.30;;;;;;5066886;28;20386;-78
2021/07/10 07:31:25;;;;;;;37.40;25.42;;;22.00;54.70;;;;;;5048089;28;20403;-78
2021/07/10 07:33:51;;;;;;;33.30;24.10;;;22.20;53.10;;;;;;5066000;28;20400;-77
2021/07/10 07:36:16;;;;;;;35.20;24.87;;;22.40;50.20;;;;;;5062952;28;20401;-77
2021/07/10 07:38:42;;;;;;;37.65;24.75;;;22.60;49.70;;;;;;5047270;28;20407;-78
2021/07/10 07:41:08;;;;;;;36.20;23.87;;;22.90;45.90;;;;;;5040648;28;20716;-77
2021/07/10 07:43:34;;;;;;;34.38;24.20;;;23.10;45.20;;;;;;5043517;28;20373;-77
2021/07/10 07:46:00;;;;;;;32.90;22.98;;;23.20;42.60;;;;;;5062767;28;20405;-78
2021/07/10 07:48:25;;;;;;;31.67;22.83;;;23.30;41.80;;;;;;5047094;28;20393;-77
2021/07/10 07:50:51;;;;;;;31.20;22.60;;;23.50;40.80;;;;;;5067495;28;20388;-78
2021/07/10 07:53:19;;;;;;;26.83;21.35;;;23.50;40.70;;;;;;5066786;28;20390;-78
2021/07/10 07:55:48;;;;;;;28.83;21.07;;;23.40;39.80;;;;;;5066088;28;20417;-78
2021/07/10 07:58:14;;;;;;;26.80;20.90;;;23.30;40.30;;;;;;5066854;28;20382;-77
2021/07/10 08:00:40;;;;;;;29.53;20.60;;;23.10;40.90;;;;;;5065861;28;20409;-78
2021/07/10 08:03:05;;;;;;;26.43;18.83;;;23.10;40.60;;;;;;5068159;28;20409;-78
2021/07/10 08:05:31;;;;;;;35.78;22.52;;;23.50;39.20;;;;;;5069986;28;20404;-79
2021/07/10 08:07:57;;;;;;;34.37;21.33;;;23.60;38.10;;;;;;5066586;28;20385;-78
2021/07/10 08:10:23;;;;;;;28.52;21.70;;;23.70;37.70;;;;;;5066580;28;20434;-77
2021/07/10 08:12:53;;;;;;;24.27;18.40;;;23.70;36.00;;;;;;5059260;28;20475;-78
2021/07/10 08:15:21;;;;;;;23.58;16.73;;;23.60;35.40;;;;;;5057049;28;21020;-78
2021/07/10 08:17:48;;;;;;;22.10;17.20;;;23.70;33.90;;;;;;5062391;28;20389;-77
2021/07/10 08:20:16;;;;;;;23.77;17.20;;;23.80;33.90;;;;;;5057695;28;20770;-77
2021/07/10 08:22:43;;;;;;;22.52;13.32;;;23.90;33.50;;;;;;5059873;28;20377;-78
2021/07/10 08:25:10;;;;;;;22.45;14.00;;;23.90;31.80;;;;;;5057966;28;20882;-77
2021/07/10 08:27:36;;;;;;;15.80;12.23;;;23.80;31.00;;;;;;5056047;28;20389;-77
2021/07/10 08:30:02;;;;;;;16.53;12.40;;;24.00;29.70;;;;;;5055922;28;20416;-78
2021/07/10 08:32:27;;;;;;;20.13;13.55;;;24.20;29.40;;;;;;5055688;28;20385;-78
2021/07/10 08:34:53;;;;;;;18.53;13.13;;;24.20;29.50;;;;;;5060695;28;20947;-78
2021/07/10 08:37:18;;;;;;;17.07;12.63;;;24.40;28.00;;;;;;5065946;28;20885;-78
2021/07/10 08:39:44;;;;;;;16.23;12.50;;;24.40;28.30;;;;;;5064789;28;20487;-78
2021/07/10 08:42:09;;;;;;;17.83;12.57;;;24.50;28.00;;;;;;5066141;28;20384;-78
2021/07/10 08:44:40;;;;;;;19.88;12.88;;;24.70;27.80;;;;;;5064538;28;20392;-78
2021/07/10 08:47:11;;;;;;;16.00;11.93;;;25.20;24.70;;;;;;5059212;28;20377;-76
2021/07/10 08:49:38;;;;;;;19.00;14.10;;;25.20;24.30;;;;;;5040993;28;20898;-77
2021/07/10 08:52:04;;;;;;;16.75;12.10;;;25.20;24.80;;;;;;5062469;28;20503;-76
2021/07/10 08:54:29;;;;;;;15.85;11.50;;;25.20;24.70;;;;;;5057660;28;20390;-77
2021/07/10 08:56:55;;;;;;;19.10;12.30;;;25.20;23.10;;;;;;5055729;28;20469;-77
2021/07/10 08:59:20;;;;;;;18.02;11.68;;;25.00;23.90;;;;;;5058765;28;20390;-77
2021/07/10 09:01:46;;;;;;;14.13;10.97;;;25.00;24.40;;;;;;5055652;28;20906;-78
2021/07/10 09:04:12;;;;;;;14.32;10.90;;;25.20;24.10;;;;;;5037337;28;20393;-77
2021/07/10 09:06:40;;;;;;;17.20;11.80;;;25.30;23.60;;;;;;5055471;28;20439;-77
2021/07/10 09:09:07;;;;;;;16.15;11.85;;;25.40;21.90;;;;;;5054972;28;20434;-76
2021/07/10 09:11:32;;;;;;;14.55;10.20;;;25.50;22.40;;;;;;5053708;28;20389;-77
2021/07/10 09:13:58;;;;;;;13.07;9.17;;;25.50;21.20;;;;;;5056338;28;20385;-76
2021/07/10 09:16:29;;;;;;;16.23;11.20;;;25.90;21.00;;;;;;5055898;28;20389;-77
2021/07/10 09:19:07;;;;;;;14.23;11.60;;;25.80;20.30;;;;;;5062326;28;20389;-77
2021/07/10 09:21:42;;;;;;;12.95;10.40;;;26.00;19.50;;;;;;5058603;28;20413;-77
2021/07/10 09:24:14;;;;;;;17.80;11.40;;;26.10;19.80;;;;;;5061264;28;20378;-78
2021/07/10 09:26:52;;;;;;;16.55;11.30;;;25.80;20.00;;;;;;5059156;28;20739;-77
2021/07/10 09:29:28;;;;;;;15.65;11.45;;;25.90;19.90;;;;;;5054775;28;20381;-77
2021/07/10 09:31:57;;;;;;;14.55;11.13;;;25.90;20.40;;;;;;5056397;28;20461;-78
2021/07/10 09:34:33;;;;;;;15.48;11.82;;;25.90;20.60;;;;;;5056066;28;20385;-78
2021/07/10 09:37:03;;;;;;;14.93;11.10;;;25.90;19.90;;;;;;5062555;28;20552;-77
2021/07/10 09:39:35;;;;;;;15.00;11.20;;;25.90;21.20;;;;;;5063498;28;20778;-77
2021/07/10 09:42:03;;;;;;;11.93;10.30;;;26.10;21.10;;;;;;5059566;28;20405;-79
2021/07/10 09:44:50;;;;;;;16.50;11.85;;;26.70;19.60;;;;;;5040805;28;20409;-78
2021/07/10 09:47:23;;;;;;;17.88;12.40;;;26.70;19.30;;;;;;5040790;28;20995;-77
2021/07/10 09:49:48;;;;;;;15.07;12.60;;;26.30;20.00;;;;;;5059188;28;20395;-78
2021/07/10 09:52:16;;;;;;;17.70;11.68;;;26.20;20.40;;;;;;5058439;28;20472;-77
2021/07/10 09:54:43;;;;;;;14.82;10.52;;;26.00;20.10;;;;;;5059175;28;20385;-78
2021/07/10 09:57:16;;;;;;;13.98;10.77;;;26.50;19.40;;;;;;5058916;28;20381;-78
2021/07/10 09:59:51;;;;;;;13.05;9.93;;;26.70;18.20;;;;;;5041463;28;20385;-78
2021/07/10 10:02:21;;;;;;;11.95;10.15;;;26.70;18.80;;;;;;5040763;28;20391;-77
2021/07/10 10:04:47;;;;;;;13.40;9.43;;;26.50;19.10;;;;;;5040896;28;20736;-78
2021/07/10 10:07:18;;;;;;;15.63;10.27;;;26.70;18.60;;;;;;5058591;28;20447;-79
2021/07/10 10:09:46;;;;;;;13.18;10.60;;;27.10;17.40;;;;;;5041446;28;20421;-79
2021/07/10 10:12:14;;;;;;;11.73;9.77;;;27.10;18.50;;;;;;5041394;28;20387;-78
2021/07/10 10:14:49;;;;;;;16.20;10.40;;;27.10;18.50;;;;;;5041310;28;20461;-77
2021/07/10 10:17:18;;;;;;;15.25;11.02;;;27.10;18.20;;;;;;5059538;28;20442;-75
2021/07/10 10:19:44;;;;;;;12.88;10.25;;;27.00;17.90;;;;;;5060316;28;20389;-77
2021/07/10 10:22:12;;;;;;;12.37;11.07;;;26.90;17.30;;;;;;5059549;28;20373;-77
2021/07/10 10:24:40;;;;;;;17.60;10.95;;;26.80;18.00;;;;;;5057900;28;20751;-78
2021/07/10 10:27:07;;;;;;;16.63;11.55;;;26.70;18.90;;;;;;5058277;28;20420;-79
2021/07/10 10:29:34;;;;;;;16.67;12.30;;;26.80;19.70;;;;;;5062392;28;20384;-77
2021/07/10 10:32:01;;;;;;;16.63;12.13;;;26.90;19.60;;;;;;5049781;28;20444;-76
2021/07/10 10:34:27;;;;;;;17.98;12.93;;;26.60;20.00;;;;;;5040928;28;20906;-76
2021/07/10 10:36:54;;;;;;;16.02;11.88;;;26.20;20.60;;;;;;5046821;28;20402;-76
2021/07/10 10:39:23;;;;;;;15.80;12.77;;;26.10;21.30;;;;;;5064973;28;20468;-75
2021/07/10 10:41:56;;;;;;;21.50;12.82;;;25.90;22.10;;;;;;5056452;28;20405;-78
2021/07/10 10:44:25;;;;;;;15.75;11.60;;;25.90;22.00;;;;;;5058351;28;20385;-77
2021/07/10 10:46:54;;;;;;;18.23;11.30;;;25.90;21.90;;;;;;5040505;28;20384;-78
2021/07/10 10:49:38;;;;;;;17.80;12.43;;;26.10;22.20;;;;;;5062144;28;20935;-77
2021/07/10 10:52:37;;;;;;;18.10;12.38;;;26.00;21.30;;;;;;5067678;28;20384;-77
2021/07/10 10:55:05;;;;;;;16.85;12.23;;;26.10;21.30;;;;;;5071164;28;20401;-78
2021/07/10 10:57:34;;;;;;;17.10;11.30;;;26.30;20.00;;;;;;5059396;28;20440;-78
2021/07/10 11:00:00;;;;;;;17.95;11.50;;;26.40;19.80;;;;;;5061419;28;20409;-77
2021/07/10 11:02:28;;;;;;;17.27;12.13;;;26.50;19.70;;;;;;5063521;28;20392;-79
2021/07/10 11:04:57;;;;;;;16.67;12.63;;;26.60;19.10;;;;;;5062194;28;20435;-78
2021/07/10 11:07:27;;;;;;;15.77;10.90;;;26.80;18.90;;;;;;5062724;28;20438;-76
2021/07/10 11:10:02;;;;;;;14.80;11.43;;;27.40;17.80;;;;;;5062990;28;20467;-77
2021/07/10 11:12:46;;;;;;;14.68;10.73;;;27.50;17.50;;;;;;5063141;28;20488;-78
2021/07/10 11:15:24;;;;;;;15.10;10.32;;;27.20;18.30;;;;;;5062054;28;20436;-79
2021/07/10 11:17:57;;;;;;;14.70;10.48;;;26.90;18.20;;;;;;5062087;28;20743;-77
2021/07/10 11:20:41;;;;;;;12.82;10.32;;;26.60;18.70;;;;;;5043821;28;20649;-79
2021/07/10 11:23:07;;;;;;;16.63;11.25;;;26.40;18.90;;;;;;5062429;28;20388;-77
2021/07/10 11:25:45;;;;;;;14.02;9.93;;;26.10;19.20;;;;;;5045925;28;20436;-77
2021/07/10 11:28:18;;;;;;;14.30;10.68;;;26.20;18.60;;;;;;5069981;28;20388;-75
2021/07/10 11:30:49;;;;;;;16.02;9.90;;;26.40;18.40;;;;;;5050448;28;20382;-75
2021/07/10 11:33:15;;;;;;;13.85;10.20;;;26.60;18.10;;;;;;5045388;28;20862;-78
2021/07/10 11:35:46;;;;;;;11.65;9.10;;;26.80;16.80;;;;;;5044284;28;20452;-78
2021/07/10 11:38:39;;;;;;;13.20;9.30;;;27.20;17.20;;;;;;5062299;28;20423;-78
2021/07/10 11:41:04;;;;;;;12.65;9.32;;;27.40;16.60;;;;;;5063350;28;20404;-77
2021/07/10 11:43:38;;;;;;;14.20;10.43;;;27.50;16.00;;;;;;5067718;28;20476;-75
2021/07/10 11:46:04;;;;;;;13.68;10.65;;;27.80;15.30;;;;;;5068731;28;20393;-76
2021/07/10 11:48:32;;;;;;;15.77;9.30;;;28.10;14.90;;;;;;5068144;28;20382;-77
2021/07/10 11:51:01;;;;;;;11.50;8.93;;;28.00;14.60;;;;;;5064835;28;20396;-76
2021/07/10 11:53:27;;;;;;;12.18;8.88;;;28.10;14.00;;;;;;5060240;28;20392;-78
2021/07/10 11:55:53;;;;;;;12.30;9.15;;;28.10;14.30;;;;;;5043365;28;20389;-77
2021/07/10 11:58:20;;;;;;;12.02;9.30;;;28.20;15.00;;;;;;5066254;28;20434;-79
2021/07/10 12:00:47;;;;;;;9.88;8.57;;;28.60;14.20;;;;;;5046797;28;20405;-79
2021/07/10 12:03:21;;;;;;;12.68;8.73;;;28.60;13.00;;;;;;5043559;28;20801;-78
2021/07/10 12:05:48;;;;;;;9.80;8.13;;;28.50;12.70;;;;;;5058507;28;20472;-78
2021/07/10 12:08:14;;;;;;;12.32;7.75;;;28.90;13.80;;;;;;5059781;28;20973;-79
2021/07/10 12:10:42;;;;;;;10.73;8.13;;;29.10;12.10;;;;;;5058614;28;20412;-79
2021/07/10 12:13:15;;;;;;;8.30;7.05;;;29.20;11.80;;;;;;5060740;28;20385;-77
2021/07/10 12:15:52;;;;;;;9.50;7.10;;;29.10;11.70;;;;;;5061169;28;20443;-78
2021/07/10 12:18:19;;;;;;;10.48;8.38;;;29.00;11.40;;;;;;5060496;28;20389;-78
2021/07/10 12:20:52;;;;;;;11.05;8.55;;;28.80;11.80;;;;;;5059450;28;20957;-78
2021/07/10 12:23:24;;;;;;;9.85;7.50;;;28.30;12.40;;;;;;5059125;28;20391;-78
2021/07/10 12:25:59;;;;;;;8.35;6.90;;;28.20;13.10;;;;;;5041550;28;20386;-79
2021/07/10 12:28:39;;;;;;;10.60;6.82;;;28.00;13.60;;;;;;5042058;28;20867;-79